createdAt,value
2023-05-01T00:00:48.971Z,15.15
2023-05-01T00:01:46.023Z,15.70
2023-05-01T00:02:42.711Z,14.20
2023-05-01T00:03:39.576Z,16.83
2023-05-01T00:04:37.032Z,13.02
2023-05-01T00:05:33.702Z,18.17
2023-05-01T00:06:30.633Z,15.45
2023-05-01T00:07:30.976Z,14.02
2023-05-01T00:08:27.780Z,13.57
2023-05-01T00:09:27.130Z,13.70
2023-05-01T00:10:23.753Z,14.05
2023-05-01T00:11:20.910Z,11.98
2023-05-01T00:12:18.038Z,16.30
2023-05-01T00:13:14.743Z,25.27
2023-05-01T00:14:11.362Z,20.92
2023-05-01T00:15:09.061Z,18.75
2023-05-01T00:16:12.799Z,17.15
2023-05-01T00:17:09.847Z,19.02
2023-05-01T00:18:06.423Z,20.52
2023-05-01T00:19:04.682Z,16.75
2023-05-01T00:20:01.239Z,15.85
2023-05-01T00:20:57.879Z,15.57
2023-05-01T00:21:54.542Z,14.93
2023-05-01T00:22:51.072Z,15.68
2023-05-01T00:23:47.667Z,19.73
2023-05-01T00:24:44.454Z,18.05
2023-05-01T00:25:41.037Z,20.25
2023-05-01T00:26:37.634Z,17.73
2023-05-01T00:27:34.222Z,17.98
2023-05-01T00:28:30.924Z,26.27
2023-05-01T00:29:28.059Z,21.33
2023-05-01T00:30:24.720Z,21.88
2023-05-01T00:31:21.401Z,22.40
2023-05-01T00:32:18.154Z,22.92
2023-05-01T00:33:14.803Z,23.45
2023-05-01T00:34:12.046Z,17.33
2023-05-01T00:35:09.887Z,21.20
2023-05-01T00:36:06.683Z,25.00
2023-05-01T00:37:03.681Z,17.30
2023-05-01T00:38:00.364Z,21.08
2023-05-01T00:38:57.046Z,18.90
2023-05-01T00:39:53.858Z,19.13
2023-05-01T00:40:51.007Z,18.70
2023-05-01T00:41:47.684Z,21.65
2023-05-01T00:42:44.381Z,22.00
2023-05-01T00:43:40.953Z,21.00
2023-05-01T00:44:37.676Z,17.25
2023-05-01T00:45:34.486Z,21.05
2023-05-01T00:46:32.541Z,20.48
2023-05-01T00:47:29.276Z,18.55
2023-05-01T00:48:26.342Z,21.23
2023-05-01T00:49:23.048Z,18.95
2023-05-01T00:50:19.869Z,18.67
2023-05-01T00:51:16.572Z,19.13
2023-05-01T00:52:13.755Z,20.95
2023-05-01T00:53:11.352Z,16.85
2023-05-01T00:54:08.411Z,18.08
2023-05-01T00:55:06.011Z,17.92
2023-05-01T00:56:04.290Z,18.23
2023-05-01T00:57:00.953Z,16.00
2023-05-01T00:57:58.493Z,17.08
2023-05-01T00:58:56.341Z,18.48
2023-05-01T00:59:53.065Z,19.65
2023-05-01T01:00:50.101Z,19.33
2023-05-01T01:01:47.333Z,16.67
2023-05-01T01:02:44.023Z,16.83
2023-05-01T01:03:40.681Z,22.13
2023-05-01T01:04:37.295Z,20.83
2023-05-01T01:05:49.377Z,22.77
2023-05-01T01:07:21.449Z,19.60
2023-05-01T01:08:33.658Z,17.83
2023-05-01T01:09:52.085Z,16.80
2023-05-01T01:11:19.915Z,20.27
2023-05-01T01:12:27.412Z,18.40
2023-05-01T01:13:27.091Z,21.20
2023-05-01T01:14:55.710Z,17.08
2023-05-01T01:15:59.654Z,17.17
2023-05-01T01:17:08.560Z,15.57
2023-05-01T01:18:16.641Z,19.00
2023-05-01T01:19:49.388Z,17.65
2023-05-01T01:21:02.506Z,17.92
2023-05-01T01:23:18.337Z,20.95
2023-05-01T01:24:57.489Z,19.38
2023-05-01T01:26:18.464Z,18.10
2023-05-01T01:27:26.931Z,17.42
2023-05-01T01:29:08.168Z,19.15
2023-05-01T01:30:34.756Z,20.30
2023-05-01T01:31:46.023Z,16.92
2023-05-01T01:33:04.130Z,19.42
2023-05-01T01:34:19.741Z,18.45
2023-05-01T01:35:20.846Z,19.63
2023-05-01T01:36:27.387Z,23.85
2023-05-01T01:37:48.483Z,20.77
2023-05-01T01:39:12.535Z,22.35
2023-05-01T01:40:16.971Z,20.23
2023-05-01T01:41:19.958Z,17.30
2023-05-01T01:42:22.102Z,21.58
2023-05-01T01:43:20.387Z,19.83
2023-05-01T01:44:23.202Z,20.15
2023-05-01T01:45:24.067Z,23.70
2023-05-01T01:46:23.495Z,25.00
2023-05-01T01:47:26.985Z,24.25
2023-05-01T01:48:30.938Z,20.25
2023-05-01T01:49:29.508Z,26.05
2023-05-01T01:50:28.399Z,22.13
2023-05-01T01:51:27.055Z,20.63
2023-05-01T01:52:25.094Z,21.15
2023-05-01T01:53:23.175Z,22.63
2023-05-01T01:54:26.607Z,19.90
2023-05-01T01:55:27.736Z,22.17
2023-05-01T01:56:27.982Z,23.63
2023-05-01T01:57:26.550Z,20.55
2023-05-01T01:58:26.310Z,25.30
2023-05-01T01:59:24.119Z,22.50
2023-05-01T02:00:22.327Z,22.08
2023-05-01T02:01:20.892Z,22.23
2023-05-01T02:02:20.167Z,22.20
2023-05-01T02:03:18.171Z,19.27
2023-05-01T02:04:16.079Z,22.80
2023-05-01T02:05:16.551Z,21.40
2023-05-01T02:06:14.211Z,22.05
2023-05-01T02:07:14.384Z,22.90
2023-05-01T02:08:12.759Z,24.42
2023-05-01T02:09:10.727Z,19.48
2023-05-01T02:10:09.984Z,21.65
2023-05-01T02:11:08.051Z,21.50
2023-05-01T02:12:08.356Z,26.02
2023-05-01T02:13:05.938Z,20.23
2023-05-01T02:14:03.738Z,22.05
2023-05-01T02:15:01.066Z,20.83
2023-05-01T02:16:03.285Z,22.50
2023-05-01T02:16:59.986Z,21.75
2023-05-01T02:17:58.357Z,19.58
2023-05-01T02:18:56.856Z,20.48
2023-05-01T02:19:55.493Z,21.67
2023-05-01T02:20:53.437Z,23.88
2023-05-01T02:21:51.355Z,22.35
2023-05-01T02:22:49.122Z,27.27
2023-05-01T02:23:45.776Z,23.00
2023-05-01T02:24:44.303Z,21.35
2023-05-01T02:25:42.249Z,19.55
2023-05-01T02:26:51.917Z,18.35
2023-05-01T02:27:55.754Z,22.55
2023-05-01T02:28:52.431Z,19.85
2023-05-01T02:29:52.170Z,20.33
2023-05-01T02:30:49.110Z,20.55
2023-05-01T02:31:45.933Z,22.73
2023-05-01T02:32:42.670Z,22.50
2023-05-01T02:33:39.326Z,22.58
2023-05-01T02:34:36.508Z,21.25
2023-05-01T02:35:33.443Z,21.58
2023-05-01T02:36:30.005Z,23.92
2023-05-01T02:37:28.123Z,20.02
2023-05-01T02:38:24.831Z,28.33
2023-05-01T02:39:22.423Z,29.38
2023-05-01T02:40:19.099Z,32.17
2023-05-01T02:41:16.476Z,26.88
2023-05-01T02:42:16.164Z,29.50
2023-05-01T02:43:15.654Z,34.50
2023-05-01T02:44:13.985Z,30.42
2023-05-01T02:45:16.617Z,29.63
2023-05-01T02:46:16.716Z,33.00
2023-05-01T02:47:18.290Z,34.65
2023-05-01T02:48:19.096Z,42.20
2023-05-01T02:49:17.640Z,33.22
2023-05-01T02:50:15.415Z,27.92
2023-05-01T02:51:12.989Z,26.65
2023-05-01T02:52:11.656Z,28.08
2023-05-01T02:53:09.706Z,29.55
2023-05-01T02:54:06.895Z,35.63
2023-05-01T02:55:03.882Z,39.38
2023-05-01T02:56:00.693Z,36.75
2023-05-01T02:56:59.667Z,32.95
2023-05-01T02:57:59.986Z,42.83
2023-05-01T02:58:56.986Z,35.80
2023-05-01T02:59:53.920Z,37.72
2023-05-01T03:00:50.929Z,29.10
2023-05-01T03:01:48.043Z,34.75
2023-05-01T03:02:46.240Z,31.23
2023-05-01T03:03:42.997Z,25.10
2023-05-01T03:04:39.759Z,27.58
2023-05-01T03:05:36.747Z,28.98
2023-05-01T03:06:33.344Z,27.90
2023-05-01T03:07:35.065Z,30.92
2023-05-01T03:08:31.706Z,36.65
2023-05-01T03:09:28.270Z,33.33
2023-05-01T03:10:25.084Z,29.67
2023-05-01T03:11:21.744Z,29.55
2023-05-01T03:12:18.529Z,25.77
2023-05-01T03:13:15.127Z,26.15
2023-05-01T03:14:12.047Z,26.25
2023-05-01T03:15:09.373Z,27.73
2023-05-01T03:16:06.315Z,25.02
2023-05-01T03:17:03.275Z,20.15
2023-05-01T03:17:59.914Z,29.48
2023-05-01T03:18:56.642Z,26.15
2023-05-01T03:19:53.353Z,27.38
2023-05-01T03:20:54.368Z,29.15
2023-05-01T03:21:51.150Z,27.35
2023-05-01T03:22:47.851Z,25.10
2023-05-01T03:23:44.481Z,27.23
2023-05-01T03:24:41.023Z,25.35
2023-05-01T03:25:38.162Z,27.98
2023-05-01T03:26:34.834Z,26.55
2023-05-01T03:27:31.470Z,30.02
2023-05-01T03:28:28.092Z,27.50
2023-05-01T03:29:24.652Z,29.13
2023-05-01T03:30:21.285Z,27.33
2023-05-01T03:31:18.014Z,28.75
2023-05-01T03:32:16.590Z,27.08
2023-05-01T03:33:13.320Z,26.27
2023-05-01T03:34:09.934Z,28.35
2023-05-01T03:35:08.069Z,28.52
2023-05-01T03:36:05.653Z,28.00
2023-05-01T03:37:02.221Z,33.95
2023-05-01T03:37:58.840Z,32.28
2023-05-01T03:38:55.467Z,30.02
2023-05-01T03:39:52.467Z,30.08
2023-05-01T03:40:49.084Z,28.00
2023-05-01T03:41:45.838Z,29.27
2023-05-01T03:42:42.598Z,25.63
2023-05-01T03:43:39.430Z,31.00
2023-05-01T03:44:36.673Z,26.08
2023-05-01T03:45:33.480Z,31.33
2023-05-01T03:46:30.401Z,34.13
2023-05-01T03:47:27.706Z,28.05
2023-05-01T03:48:24.964Z,28.17
2023-05-01T03:49:22.256Z,32.38
2023-05-01T03:50:18.926Z,32.75
2023-05-01T03:51:17.290Z,31.05
2023-05-01T03:52:14.607Z,29.60
2023-05-01T03:53:11.282Z,32.78
2023-05-01T03:54:08.371Z,30.02
2023-05-01T03:55:05.480Z,29.38
2023-05-01T03:56:04.617Z,32.15
2023-05-01T03:57:01.349Z,27.15
2023-05-01T03:57:57.979Z,27.48
2023-05-01T03:58:54.696Z,26.63
2023-05-01T03:59:51.362Z,31.15
2023-05-01T04:00:47.991Z,29.63
2023-05-01T04:01:45.122Z,30.10
2023-05-01T04:02:41.970Z,29.23
2023-05-01T04:03:38.762Z,28.30
2023-05-01T04:04:36.205Z,30.15
2023-05-01T04:05:33.468Z,26.20
2023-05-01T04:06:30.199Z,26.05
2023-05-01T04:07:26.877Z,24.30
2023-05-01T04:08:23.677Z,36.38
2023-05-01T04:09:20.259Z,26.75
2023-05-01T04:10:17.606Z,32.00
2023-05-01T04:11:14.236Z,29.63
2023-05-01T04:12:10.860Z,32.85
2023-05-01T04:13:07.490Z,26.27
2023-05-01T04:14:04.096Z,28.45
2023-05-01T04:15:00.772Z,23.50
2023-05-01T04:15:59.473Z,24.88
2023-05-01T04:16:56.711Z,26.25
2023-05-01T04:17:55.929Z,32.28
2023-05-01T04:18:53.058Z,25.63
2023-05-01T04:19:50.446Z,26.42
2023-05-01T04:20:47.073Z,23.95
2023-05-01T04:21:43.714Z,23.88
2023-05-01T04:22:40.326Z,20.00
2023-05-01T04:23:36.962Z,22.17
2023-05-01T04:24:33.717Z,21.90
2023-05-01T04:25:31.174Z,22.60
2023-05-01T04:26:28.196Z,23.52
2023-05-01T04:27:25.137Z,21.45
2023-05-01T04:28:21.820Z,28.65
2023-05-01T04:29:18.909Z,25.00
2023-05-01T04:30:15.771Z,49.30
2023-05-01T04:31:12.926Z,30.25
2023-05-01T04:32:09.589Z,22.75
2023-05-01T04:33:12.225Z,47.55
2023-05-01T04:34:08.938Z,66.13
2023-05-01T04:35:06.064Z,71.10
2023-05-01T04:36:02.680Z,57.42
2023-05-01T04:36:59.358Z,108.35
2023-05-01T04:37:56.206Z,50.47
2023-05-01T04:38:52.852Z,57.10
2023-05-01T04:39:50.951Z,27.52
2023-05-01T04:40:47.553Z,22.95
2023-05-01T04:41:44.211Z,23.55
2023-05-01T04:42:40.914Z,21.38
2023-05-01T04:43:37.598Z,24.95
2023-05-01T04:44:35.968Z,18.58
2023-05-01T04:45:32.827Z,17.30
2023-05-01T04:46:29.442Z,17.02
2023-05-01T04:47:26.103Z,13.45
2023-05-01T04:48:22.784Z,17.52
2023-05-01T04:49:19.453Z,17.02
2023-05-01T04:50:16.206Z,19.83
2023-05-01T04:51:12.852Z,16.98
2023-05-01T04:52:09.423Z,18.45
2023-05-01T04:53:06.061Z,16.10
2023-05-01T04:54:04.777Z,16.88
2023-05-01T04:55:01.699Z,16.33
2023-05-01T04:55:58.475Z,15.50
2023-05-01T04:56:55.030Z,13.52
2023-05-01T04:57:52.092Z,16.52
2023-05-01T04:58:48.622Z,14.88
2023-05-01T04:59:45.248Z,15.10
2023-05-01T05:00:41.894Z,14.40
2023-05-01T05:01:38.473Z,13.60
2023-05-01T05:02:35.090Z,14.85
2023-05-01T05:03:32.035Z,13.73
2023-05-01T05:04:29.225Z,15.63
2023-05-01T05:05:25.876Z,14.98
2023-05-01T05:06:22.828Z,16.83
2023-05-01T05:07:20.544Z,16.15
2023-05-01T05:08:17.117Z,12.73
2023-05-01T05:09:14.486Z,13.80
2023-05-01T05:10:11.340Z,12.27
2023-05-01T05:11:08.187Z,15.25
2023-05-01T05:12:05.411Z,10.65
2023-05-01T05:13:01.998Z,12.63
2023-05-01T05:13:58.583Z,13.35
2023-05-01T05:14:55.393Z,12.95
2023-05-01T05:15:52.133Z,15.48
2023-05-01T05:16:48.995Z,14.50
2023-05-01T05:17:45.801Z,11.10
2023-05-01T05:18:42.562Z,13.05
2023-05-01T05:19:39.173Z,14.70
2023-05-01T05:20:38.922Z,14.45
2023-05-01T05:21:35.702Z,15.07
2023-05-01T05:22:36.228Z,14.85
2023-05-01T05:23:33.234Z,15.23
2023-05-01T05:24:30.072Z,13.02
2023-05-01T05:25:26.775Z,12.70
2023-05-01T05:26:23.614Z,15.82
2023-05-01T05:27:20.627Z,13.07
2023-05-01T05:28:17.612Z,14.98
2023-05-01T05:29:14.490Z,13.38
2023-05-01T05:30:11.550Z,14.98
2023-05-01T05:31:08.284Z,14.30
2023-05-01T05:32:05.550Z,16.58
2023-05-01T05:33:02.220Z,18.52
2023-05-01T05:33:58.920Z,16.25
2023-05-01T05:34:55.520Z,12.73
2023-05-01T05:35:52.958Z,15.80
2023-05-01T05:36:49.774Z,12.48
2023-05-01T05:37:46.499Z,11.02
2023-05-01T05:38:43.272Z,14.23
2023-05-01T05:39:39.920Z,12.45
2023-05-01T05:40:36.581Z,16.42
2023-05-01T05:41:33.276Z,14.30
2023-05-01T05:42:29.949Z,13.50
2023-05-01T05:43:28.121Z,12.55
2023-05-01T05:44:24.961Z,13.23
2023-05-01T05:45:21.603Z,15.75
2023-05-01T05:46:18.246Z,14.38
2023-05-01T05:47:14.965Z,16.95
2023-05-01T05:48:11.677Z,13.90
2023-05-01T05:49:08.769Z,21.38
2023-05-01T05:50:07.498Z,16.50
2023-05-01T05:51:04.516Z,13.43
2023-05-01T05:52:01.130Z,21.95
2023-05-01T05:52:57.947Z,15.40
2023-05-01T05:53:54.564Z,16.80
2023-05-01T05:54:51.778Z,15.00
2023-05-01T05:55:48.742Z,18.85
2023-05-01T05:56:45.495Z,20.00
2023-05-01T05:57:43.279Z,15.75
2023-05-01T05:58:39.901Z,16.20
2023-05-01T05:59:36.634Z,13.32
2023-05-01T06:00:34.323Z,13.55
2023-05-01T06:01:30.930Z,11.45
2023-05-01T06:02:27.672Z,18.98
2023-05-01T06:03:24.882Z,13.52
2023-05-01T06:04:21.946Z,13.05
2023-05-01T06:05:18.742Z,16.60
2023-05-01T06:06:15.567Z,13.27
2023-05-01T06:07:12.169Z,12.88
2023-05-01T06:08:12.482Z,11.88
2023-05-01T06:09:09.212Z,13.93
2023-05-01T06:10:06.672Z,13.93
2023-05-01T06:11:03.313Z,12.25
2023-05-01T06:11:59.905Z,16.42
2023-05-01T06:12:59.314Z,15.02
2023-05-01T06:14:09.725Z,16.48
2023-05-01T06:15:07.389Z,15.77
2023-05-01T06:16:04.366Z,14.60
2023-05-01T06:17:01.668Z,11.73
2023-05-01T06:17:58.362Z,13.48
2023-05-01T06:18:55.073Z,14.32
2023-05-01T06:19:53.437Z,14.20
2023-05-01T06:20:50.449Z,10.32
2023-05-01T06:21:47.123Z,16.92
2023-05-01T06:22:43.691Z,16.35
2023-05-01T06:23:40.277Z,12.25
2023-05-01T06:24:36.882Z,13.48
2023-05-01T06:25:33.556Z,13.77
2023-05-01T06:26:30.193Z,21.38
2023-05-01T06:27:26.867Z,18.05
2023-05-01T06:28:23.495Z,16.15
2023-05-01T06:29:20.082Z,13.13
2023-05-01T06:30:19.758Z,18.90
2023-05-01T06:31:16.421Z,16.08
2023-05-01T06:32:13.016Z,17.27
2023-05-01T06:33:10.426Z,17.00
2023-05-01T06:34:07.055Z,14.70
2023-05-01T06:35:04.635Z,16.35
2023-05-01T06:36:01.447Z,17.85
2023-05-01T06:36:58.077Z,15.85
2023-05-01T06:37:56.168Z,14.40
2023-05-01T06:38:52.863Z,16.77
2023-05-01T06:39:49.408Z,18.00
2023-05-01T06:40:47.527Z,14.68
2023-05-01T06:41:47.579Z,16.33
2023-05-01T06:42:44.324Z,12.32
2023-05-01T06:43:41.097Z,11.15
2023-05-01T06:44:37.764Z,13.82
2023-05-01T06:45:34.477Z,12.75
2023-05-01T06:46:31.381Z,13.90
2023-05-01T06:47:28.073Z,17.42
2023-05-01T06:48:25.482Z,18.25
2023-05-01T06:49:22.326Z,13.13
2023-05-01T06:50:19.093Z,16.25
2023-05-01T06:51:16.161Z,13.25
2023-05-01T06:52:12.826Z,15.80
2023-05-01T06:53:09.406Z,16.50
2023-05-01T06:54:06.008Z,13.45
2023-05-01T06:55:03.787Z,11.82
2023-05-01T06:56:00.440Z,15.40
2023-05-01T06:56:57.082Z,13.35
2023-05-01T06:57:53.672Z,16.20
2023-05-01T06:58:50.353Z,13.57
2023-05-01T06:59:47.167Z,14.25
2023-05-01T07:00:43.895Z,12.18
2023-05-01T07:01:40.896Z,12.00
2023-05-01T07:02:38.310Z,12.45
2023-05-01T07:03:35.149Z,12.70
2023-05-01T07:04:32.072Z,13.35
2023-05-01T07:05:28.665Z,15.27
2023-05-01T07:06:25.986Z,12.50
2023-05-01T07:07:23.411Z,11.50
2023-05-01T07:08:20.146Z,15.30
2023-05-01T07:09:16.700Z,19.90
2023-05-01T07:10:13.609Z,14.77
2023-05-01T07:11:10.391Z,13.32
2023-05-01T07:12:07.172Z,16.42
2023-05-01T07:13:03.844Z,10.38
2023-05-01T07:14:01.342Z,9.77
2023-05-01T07:14:58.007Z,12.93
2023-05-01T07:15:55.223Z,15.60
2023-05-01T07:16:52.055Z,11.98
2023-05-01T07:17:49.130Z,11.63
2023-05-01T07:18:45.874Z,13.98
2023-05-01T07:19:42.600Z,9.63
2023-05-01T07:20:39.311Z,10.73
2023-05-01T07:21:36.114Z,12.73
2023-05-01T07:22:32.679Z,9.43
2023-05-01T07:23:29.365Z,10.68
2023-05-01T07:24:25.961Z,13.70
2023-05-01T07:25:22.748Z,11.48
2023-05-01T07:26:19.853Z,10.93
2023-05-01T07:27:16.484Z,10.48
2023-05-01T07:28:13.224Z,8.77
2023-05-01T07:29:10.000Z,12.85
2023-05-01T07:30:07.638Z,10.50
2023-05-01T07:31:04.490Z,10.25
2023-05-01T07:32:01.511Z,9.38
2023-05-01T07:32:59.000Z,15.93
2023-05-01T07:33:56.934Z,10.35
2023-05-01T07:34:53.534Z,10.68
2023-05-01T07:35:50.216Z,7.30
2023-05-01T07:36:46.850Z,11.60
2023-05-01T07:37:43.420Z,12.13
2023-05-01T07:38:40.637Z,8.80
2023-05-01T07:39:37.479Z,10.77
2023-05-01T07:40:34.984Z,7.15
2023-05-01T07:41:31.748Z,12.45
2023-05-01T07:42:28.401Z,12.18
2023-05-01T07:43:25.075Z,8.38
2023-05-01T07:44:21.798Z,8.73
2023-05-01T07:45:18.458Z,5.57
2023-05-01T07:46:15.836Z,10.15
2023-05-01T07:47:12.518Z,13.82
2023-05-01T07:48:09.674Z,12.13
2023-05-01T07:49:06.369Z,12.02
2023-05-01T07:50:03.955Z,10.40
2023-05-01T07:51:03.993Z,8.32
2023-05-01T07:52:01.171Z,9.90
2023-05-01T07:52:58.116Z,9.82
2023-05-01T07:53:54.878Z,7.70
2023-05-01T07:54:51.587Z,6.10
2023-05-01T07:55:48.415Z,9.13
2023-05-01T07:56:45.010Z,10.15
2023-05-01T07:57:41.994Z,6.65
2023-05-01T07:58:38.751Z,8.98
2023-05-01T07:59:35.312Z,7.20
2023-05-01T08:00:32.023Z,7.15
2023-05-01T08:01:28.794Z,9.10
2023-05-01T08:02:25.812Z,7.93
2023-05-01T08:03:22.757Z,11.05
2023-05-01T08:04:22.640Z,8.02
2023-05-01T08:05:19.481Z,7.50
2023-05-01T08:06:16.137Z,11.20
2023-05-01T08:07:12.749Z,7.88
2023-05-01T08:08:10.069Z,6.82
2023-05-01T08:09:06.690Z,5.50
2023-05-01T08:10:03.640Z,8.75
2023-05-01T08:11:00.757Z,5.38
2023-05-01T08:11:57.395Z,7.05
2023-05-01T08:12:54.053Z,12.30
2023-05-01T08:13:51.060Z,7.10
2023-05-01T08:14:47.687Z,5.35
2023-05-01T08:15:47.308Z,9.77
2023-05-01T08:16:44.405Z,8.52
2023-05-01T08:17:41.230Z,5.72
2023-05-01T08:18:37.906Z,8.73
2023-05-01T08:19:35.022Z,5.38
2023-05-01T08:20:31.626Z,6.35
2023-05-01T08:21:28.267Z,8.13
2023-05-01T08:22:24.884Z,5.28
2023-05-01T08:23:21.479Z,8.98
2023-05-01T08:24:18.192Z,7.95
2023-05-01T08:25:14.945Z,6.70
2023-05-01T08:26:11.586Z,11.10
2023-05-01T08:27:09.509Z,7.75
2023-05-01T08:28:06.320Z,7.88
2023-05-01T08:29:02.994Z,6.78
2023-05-01T08:29:59.590Z,6.13
2023-05-01T08:30:56.415Z,10.55
2023-05-01T08:31:53.135Z,5.55
2023-05-01T08:32:49.965Z,9.50
2023-05-01T08:33:46.653Z,12.55
2023-05-01T08:34:43.322Z,9.57
2023-05-01T08:35:39.936Z,5.82
2023-05-01T08:36:36.572Z,6.35
2023-05-01T08:37:33.205Z,7.53
2023-05-01T08:38:29.919Z,4.95
2023-05-01T08:39:26.518Z,8.85
2023-05-01T08:40:26.189Z,5.80
2023-05-01T08:41:23.825Z,8.27
2023-05-01T08:42:20.573Z,9.45
2023-05-01T08:43:17.880Z,6.80
2023-05-01T08:44:16.759Z,4.93
2023-05-01T08:45:14.428Z,9.35
2023-05-01T08:46:13.233Z,6.03
2023-05-01T08:47:17.043Z,5.75
2023-05-01T08:48:17.575Z,5.38
2023-05-01T08:49:17.552Z,10.70
2023-05-01T08:50:16.443Z,10.93
2023-05-01T08:51:16.658Z,6.13
2023-05-01T08:52:15.438Z,6.20
2023-05-01T08:53:13.977Z,5.32
2023-05-01T08:54:11.590Z,8.23
2023-05-01T08:55:13.900Z,6.38
2023-05-01T08:56:13.618Z,7.10
2023-05-01T08:57:12.168Z,6.95
2023-05-01T08:58:09.850Z,5.60
2023-05-01T08:59:09.957Z,4.70
2023-05-01T09:00:07.853Z,6.28
2023-05-01T09:01:04.769Z,4.28
2023-05-01T09:02:04.278Z,5.32
2023-05-01T09:03:04.767Z,6.00
2023-05-01T09:04:06.787Z,5.40
2023-05-01T09:05:06.097Z,4.57
2023-05-01T09:06:04.235Z,4.65
2023-05-01T09:07:01.647Z,5.50
2023-05-01T09:07:59.051Z,5.40
2023-05-01T09:08:56.073Z,3.20
2023-05-01T09:09:52.705Z,3.13
2023-05-01T09:10:50.694Z,4.63
2023-05-01T09:11:47.470Z,2.55
2023-05-01T09:12:47.074Z,3.38
2023-05-01T09:13:43.828Z,2.92
2023-05-01T09:14:40.635Z,2.35
2023-05-01T09:15:37.827Z,5.13
2023-05-01T09:16:34.905Z,2.53
2023-05-01T09:17:32.353Z,2.72
2023-05-01T09:18:29.114Z,3.08
2023-05-01T09:19:27.067Z,2.88
2023-05-01T09:20:24.555Z,4.38
2023-05-01T09:21:21.157Z,6.57
2023-05-01T09:22:18.770Z,3.00
2023-05-01T09:23:15.462Z,5.43
2023-05-01T09:24:12.222Z,3.42
2023-05-01T09:25:10.973Z,5.68
2023-05-01T09:26:08.218Z,4.97
2023-05-01T09:27:06.533Z,4.72
2023-05-01T09:28:05.901Z,3.00
2023-05-01T09:29:02.640Z,2.17
2023-05-01T09:29:59.388Z,3.58
2023-05-01T09:30:56.094Z,5.60
2023-05-01T09:31:52.856Z,9.93
2023-05-01T09:33:23.923Z,4.03
2023-05-01T09:34:21.945Z,4.47
2023-05-01T09:35:18.640Z,7.45
2023-05-01T09:36:18.139Z,5.07
2023-05-01T09:37:29.968Z,6.13
2023-05-01T09:38:29.141Z,4.13
2023-05-01T09:39:26.094Z,5.13
2023-05-01T09:40:27.584Z,3.45
2023-05-01T09:41:24.593Z,4.32
2023-05-01T09:42:24.507Z,4.38
2023-05-01T09:43:28.635Z,7.88
2023-05-01T09:44:26.978Z,3.35
2023-05-01T09:45:26.775Z,6.15
2023-05-01T09:46:24.814Z,6.28
2023-05-01T09:47:24.915Z,5.22
2023-05-01T09:48:21.562Z,3.33
2023-05-01T09:49:18.109Z,5.22
2023-05-01T09:50:32.550Z,6.03
2023-05-01T09:51:30.835Z,2.58
2023-05-01T09:52:28.473Z,3.40
2023-05-01T09:53:40.800Z,6.60
2023-05-01T09:54:37.405Z,3.45
2023-05-01T09:55:34.881Z,5.60
2023-05-01T09:56:34.281Z,5.18
2023-05-01T09:57:38.374Z,1.75
2023-05-01T09:58:35.022Z,2.60
2023-05-01T09:59:34.397Z,2.30
2023-05-01T10:00:31.244Z,1.60
2023-05-01T10:01:39.936Z,1.63
2023-05-01T10:02:37.134Z,2.15
2023-05-01T10:03:37.664Z,2.78
2023-05-01T10:04:35.203Z,2.60
2023-05-01T10:05:43.206Z,10.90
2023-05-01T10:06:40.514Z,1.50
2023-05-01T10:07:38.081Z,1.65
2023-05-01T10:08:51.023Z,1.38
2023-05-01T10:09:47.676Z,1.48
2023-05-01T10:10:44.354Z,1.50
2023-05-01T10:11:56.130Z,2.92
2023-05-01T10:12:53.209Z,2.38
2023-05-01T10:14:09.143Z,2.00
2023-05-01T10:15:17.626Z,2.53
2023-05-01T10:16:31.313Z,3.03
2023-05-01T10:17:28.136Z,2.92
2023-05-01T10:18:25.573Z,1.98
2023-05-01T10:19:22.434Z,2.00
2023-05-01T10:20:19.068Z,2.88
2023-05-01T10:21:16.812Z,2.65
2023-05-01T10:22:14.200Z,2.78
2023-05-01T10:23:11.673Z,2.72
2023-05-01T10:24:10.101Z,2.55
2023-05-01T10:25:14.534Z,1.75
2023-05-01T10:26:13.831Z,5.50
2023-05-01T10:27:12.439Z,1.92
2023-05-01T10:28:09.863Z,5.88
2023-05-01T10:29:06.481Z,4.55
2023-05-01T10:30:08.328Z,3.80
2023-05-01T10:31:06.394Z,2.55
2023-05-01T10:32:05.024Z,3.70
2023-05-01T10:33:02.628Z,4.15
2023-05-01T10:34:03.152Z,2.92
2023-05-01T10:35:26.084Z,3.55
2023-05-01T10:36:48.005Z,2.45
2023-05-01T10:37:48.738Z,2.50
2023-05-01T10:38:48.545Z,1.35
2023-05-01T10:39:45.152Z,4.75
2023-05-01T10:40:46.045Z,3.35
2023-05-01T10:42:03.823Z,3.08
2023-05-01T10:43:18.663Z,1.58
2023-05-01T10:44:23.385Z,6.40
2023-05-01T10:45:30.105Z,1.70
2023-05-01T10:46:27.538Z,3.25
2023-05-01T10:47:28.731Z,1.73
2023-05-01T10:48:40.809Z,1.90
2023-05-01T10:50:08.849Z,1.85
2023-05-01T10:51:09.618Z,3.50
2023-05-01T10:52:06.730Z,2.00
2023-05-01T10:53:12.490Z,5.50
2023-05-01T10:54:15.023Z,4.95
2023-05-01T10:56:32.591Z,4.50
2023-05-01T10:58:38.950Z,2.63
2023-05-01T11:00:01.708Z,5.00
2023-05-01T11:01:31.391Z,3.03
2023-05-01T11:02:28.281Z,2.10
2023-05-01T11:03:24.932Z,2.92
2023-05-01T11:04:27.352Z,2.45
2023-05-01T11:07:08.016Z,5.95
2023-05-01T11:08:38.434Z,2.75
2023-05-01T11:09:49.312Z,2.75
2023-05-01T11:10:46.092Z,2.10
2023-05-01T11:11:42.573Z,3.00
2023-05-01T11:12:51.734Z,2.20
2023-05-01T11:14:01.564Z,2.92
2023-05-01T11:15:18.120Z,5.38
2023-05-01T11:16:40.078Z,5.18
2023-05-01T11:17:39.830Z,2.13
2023-05-01T11:18:46.531Z,2.95
2023-05-01T11:19:48.177Z,3.63
2023-05-01T11:20:48.482Z,2.90
2023-05-01T11:21:45.538Z,3.58
2023-05-01T11:22:48.224Z,3.85
2023-05-01T11:23:47.526Z,5.32
2023-05-01T11:24:44.248Z,3.75
2023-05-01T11:25:41.026Z,4.60
2023-05-01T11:26:40.023Z,2.20
2023-05-01T11:27:36.832Z,5.82
2023-05-01T11:28:34.261Z,4.13
2023-05-01T11:29:34.880Z,3.40
2023-05-01T11:30:40.862Z,6.38
2023-05-01T11:31:38.428Z,4.10
2023-05-01T11:32:35.195Z,4.13
2023-05-01T11:33:32.077Z,2.53
2023-05-01T11:34:35.824Z,3.03
2023-05-01T11:35:32.950Z,3.00
2023-05-01T11:36:47.292Z,1.80
2023-05-01T11:37:44.625Z,5.05
2023-05-01T11:38:56.575Z,4.43
2023-05-01T11:39:53.777Z,3.92
2023-05-01T11:40:56.344Z,2.53
2023-05-01T11:43:07.091Z,4.30
2023-05-01T11:44:03.942Z,2.72
2023-05-01T11:45:08.456Z,2.25
2023-05-01T11:46:05.199Z,1.63
2023-05-01T11:47:02.246Z,2.95
2023-05-01T11:48:01.359Z,4.18
2023-05-01T11:49:01.806Z,2.88
2023-05-01T11:49:58.514Z,6.18
2023-05-01T11:50:55.174Z,2.78
2023-05-01T11:51:57.362Z,4.28
2023-05-01T11:52:54.014Z,1.63
2023-05-01T11:54:03.318Z,2.88
2023-05-01T11:55:00.245Z,1.95
2023-05-01T11:55:57.105Z,3.47
2023-05-01T11:57:03.663Z,13.68
2023-05-01T11:58:00.893Z,4.40
2023-05-01T11:58:59.195Z,8.57
2023-05-01T11:59:55.788Z,7.20
2023-05-01T12:00:52.470Z,5.22
2023-05-01T12:01:49.636Z,10.73
2023-05-01T12:03:15.969Z,7.30
2023-05-01T12:04:23.319Z,3.13
2023-05-01T12:05:20.207Z,3.13
2023-05-01T12:06:16.943Z,5.00
2023-05-01T12:07:23.898Z,5.18
2023-05-01T12:08:23.161Z,5.70
2023-05-01T12:09:24.863Z,5.65
2023-05-01T12:10:21.703Z,8.15
2023-05-01T12:11:20.659Z,4.88
2023-05-01T12:12:18.245Z,3.72
2023-05-01T12:13:16.215Z,2.95
2023-05-01T12:14:15.262Z,4.93
2023-05-01T12:15:12.369Z,4.55
2023-05-01T12:16:09.446Z,2.03
2023-05-01T12:17:07.248Z,2.22
2023-05-01T12:18:05.857Z,4.70
2023-05-01T12:19:03.116Z,5.55
2023-05-01T12:19:59.756Z,4.35
2023-05-01T12:20:57.107Z,4.82
2023-05-01T12:22:07.502Z,3.30
2023-05-01T12:23:06.359Z,7.93
2023-05-01T12:24:17.417Z,5.78
2023-05-01T12:25:14.510Z,6.45
2023-05-01T12:26:23.717Z,2.25
2023-05-01T12:27:20.824Z,2.25
2023-05-01T12:28:20.501Z,4.82
2023-05-01T12:29:17.130Z,3.03
2023-05-01T12:30:24.938Z,6.18
2023-05-01T12:31:21.742Z,7.50
2023-05-01T12:32:18.435Z,4.53
2023-05-01T12:33:20.250Z,8.13
2023-05-01T12:34:17.060Z,8.52
2023-05-01T12:35:15.606Z,8.10
2023-05-01T12:36:12.410Z,5.05
2023-05-01T12:37:10.120Z,5.15
2023-05-01T12:38:18.354Z,5.55
2023-05-01T12:39:15.200Z,4.15
2023-05-01T12:40:14.910Z,2.63
2023-05-01T12:41:13.354Z,6.68
2023-05-01T12:42:14.710Z,6.80
2023-05-01T12:43:11.574Z,7.57
2023-05-01T12:44:19.472Z,5.20
2023-05-01T12:45:16.159Z,7.82
2023-05-01T12:46:14.895Z,4.35
2023-05-01T12:47:12.404Z,8.32
2023-05-01T12:48:13.983Z,4.25
2023-05-01T12:49:17.671Z,5.45
2023-05-01T12:50:14.315Z,1.70
2023-05-01T12:51:18.823Z,5.78
2023-05-01T12:52:15.479Z,3.30
2023-05-01T12:53:12.622Z,2.95
2023-05-01T12:54:09.406Z,4.25
2023-05-01T12:55:08.197Z,4.72
2023-05-01T12:56:05.029Z,3.53
2023-05-01T12:57:14.521Z,8.32
2023-05-01T12:58:11.521Z,2.08
2023-05-01T12:59:24.006Z,4.40